sensor_id;sensor_type;location;lat;lon;timestamp;P1;durP1;ratioP1;P2;durP2;ratioP2
52124;SDS011;38119;52.710;6.398;2024-03-06T00:02:24;37.67;;;23.63;;
52124;SDS011;38119;52.710;6.398;2024-03-06T00:04:49;36.10;;;21.60;;
52124;SDS011;38119;52.710;6.398;2024-03-06T00:07:15;36.33;;;23.00;;
52124;SDS011;38119;52.710;6.398;2024-03-06T00:09:41;35.83;;;22.33;;
52124;SDS011;38119;52.710;6.398;2024-03-06T00:12:07;36.15;;;22.50;;
52124;SDS011;38119;52.710;6.398;2024-03-06T00:14:32;38.33;;;21.33;;
52124;SDS011;38119;52.710;6.398;2024-03-06T00:16:59;31.95;;;20.35;;
52124;SDS011;38119;52.710;6.398;2024-03-06T00:19:25;33.33;;;21.38;;
52124;SDS011;38119;52.710;6.398;2024-03-06T00:21:50;29.73;;;21.02;;
52124;SDS011;38119;52.710;6.398;2024-03-06T00:24:16;33.35;;;20.70;;
52124;SDS011;38119;52.710;6.398;2024-03-06T00:26:45;31.33;;;19.65;;
52124;SDS011;38119;52.710;6.398;2024-03-06T00:29:12;28.20;;;19.02;;
52124;SDS011;38119;52.710;6.398;2024-03-06T00:31:42;31.65;;;19.65;;
52124;SDS011;38119;52.710;6.398;2024-03-06T00:34:09;30.90;;;18.30;;
52124;SDS011;38119;52.710;6.398;2024-03-06T00:36:36;27.15;;;17.45;;
52124;SDS011;38119;52.710;6.398;2024-03-06T00:39:02;25.83;;;16.75;;
52124;SDS011;38119;52.710;6.398;2024-03-06T00:41:29;27.70;;;16.73;;
52124;SDS011;38119;52.710;6.398;2024-03-06T00:43:55;30.08;;;17.17;;
52124;SDS011;38119;52.710;6.398;2024-03-06T00:46:21;26.92;;;15.88;;
52124;SDS011;38119;52.710;6.398;2024-03-06T00:48:47;25.67;;;15.88;;
52124;SDS011;38119;52.710;6.398;2024-03-06T00:51:12;27.17;;;15.15;;
52124;SDS011;38119;52.710;6.398;2024-03-06T00:53:38;21.75;;;14.77;;
52124;SDS011;38119;52.710;6.398;2024-03-06T00:56:04;24.55;;;14.38;;
52124;SDS011;38119;52.710;6.398;2024-03-06T00:58:31;24.08;;;14.35;;
52124;SDS011;38119;52.710;6.398;2024-03-06T01:00:59;22.92;;;14.13;;
52124;SDS011;38119;52.710;6.398;2024-03-06T01:03:25;23.05;;;13.48;;
52124;SDS011;38119;52.710;6.398;2024-03-06T01:05:55;22.27;;;12.95;;
52124;SDS011;38119;52.710;6.398;2024-03-06T01:08:23;26.48;;;13.15;;
52124;SDS011;38119;52.710;6.398;2024-03-06T01:10:52;20.52;;;12.38;;
52124;SDS011;38119;52.710;6.398;2024-03-06T01:13:18;20.20;;;11.18;;
52124;SDS011;38119;52.710;6.398;2024-03-06T01:15:44;24.15;;;11.95;;
52124;SDS011;38119;52.710;6.398;2024-03-06T01:18:10;20.27;;;11.95;;
52124;SDS011;38119;52.710;6.398;2024-03-06T01:20:36;21.38;;;12.00;;
52124;SDS011;38119;52.710;6.398;2024-03-06T01:23:02;18.23;;;12.05;;
52124;SDS011;38119;52.710;6.398;2024-03-06T01:25:31;17.52;;;10.75;;
52124;SDS011;38119;52.710;6.398;2024-03-06T01:27:57;19.30;;;11.52;;
52124;SDS011;38119;52.710;6.398;2024-03-06T01:30:28;18.50;;;11.68;;
52124;SDS011;38119;52.710;6.398;2024-03-06T01:32:55;20.05;;;12.00;;
52124;SDS011;38119;52.710;6.398;2024-03-06T01:35:20;19.80;;;10.35;;
52124;SDS011;38119;52.710;6.398;2024-03-06T01:37:46;19.55;;;11.02;;
52124;SDS011;38119;52.710;6.398;2024-03-06T01:40:21;16.95;;;10.77;;
52124;SDS011;38119;52.710;6.398;2024-03-06T01:42:47;16.77;;;10.68;;
52124;SDS011;38119;52.710;6.398;2024-03-06T01:45:16;16.77;;;10.55;;
52124;SDS011;38119;52.710;6.398;2024-03-06T01:47:42;20.65;;;10.63;;
52124;SDS011;38119;52.710;6.398;2024-03-06T01:50:10;22.05;;;11.07;;
52124;SDS011;38119;52.710;6.398;2024-03-06T01:52:36;20.73;;;10.43;;
52124;SDS011;38119;52.710;6.398;2024-03-06T01:55:05;20.42;;;10.93;;
52124;SDS011;38119;52.710;6.398;2024-03-06T01:57:33;19.10;;;11.50;;
52124;SDS011;38119;52.710;6.398;2024-03-06T02:00:03;17.08;;;10.98;;
52124;SDS011;38119;52.710;6.398;2024-03-06T02:02:32;21.13;;;11.40;;
52124;SDS011;38119;52.710;6.398;2024-03-06T02:04:58;22.95;;;10.95;;
52124;SDS011;38119;52.710;6.398;2024-03-06T02:07:26;17.80;;;10.65;;
52124;SDS011;38119;52.710;6.398;2024-03-06T02:09:57;15.20;;;9.70;;
52124;SDS011;38119;52.710;6.398;2024-03-06T02:12:25;19.60;;;10.65;;
52124;SDS011;38119;52.710;6.398;2024-03-06T02:14:55;19.80;;;10.73;;
52124;SDS011;38119;52.710;6.398;2024-03-06T02:17:21;17.05;;;9.95;;
52124;SDS011;38119;52.710;6.398;2024-03-06T02:19:47;16.17;;;9.70;;
52124;SDS011;38119;52.710;6.398;2024-03-06T02:22:12;22.50;;;10.10;;
52124;SDS011;38119;52.710;6.398;2024-03-06T02:24:43;19.80;;;9.85;;
52124;SDS011;38119;52.710;6.398;2024-03-06T02:27:11;19.17;;;10.65;;
52124;SDS011;38119;52.710;6.398;2024-03-06T02:29:37;20.10;;;9.85;;
52124;SDS011;38119;52.710;6.398;2024-03-06T02:32:05;18.70;;;10.50;;
52124;SDS011;38119;52.710;6.398;2024-03-06T02:34:31;17.83;;;9.88;;
52124;SDS011;38119;52.710;6.398;2024-03-06T02:36:58;16.58;;;10.60;;
52124;SDS011;38119;52.710;6.398;2024-03-06T02:39:24;18.75;;;9.60;;
52124;SDS011;38119;52.710;6.398;2024-03-06T02:41:49;17.05;;;10.57;;
52124;SDS011;38119;52.710;6.398;2024-03-06T02:44:15;16.27;;;10.25;;
52124;SDS011;38119;52.710;6.398;2024-03-06T02:46:47;19.23;;;10.18;;
52124;SDS011;38119;52.710;6.398;2024-03-06T02:49:13;18.98;;;10.18;;
52124;SDS011;38119;52.710;6.398;2024-03-06T02:51:40;21.73;;;10.73;;
52124;SDS011;38119;52.710;6.398;2024-03-06T02:54:09;19.10;;;10.15;;
52124;SDS011;38119;52.710;6.398;2024-03-06T02:56:38;17.15;;;10.38;;
52124;SDS011;38119;52.710;6.398;2024-03-06T02:59:04;17.45;;;10.30;;
52124;SDS011;38119;52.710;6.398;2024-03-06T03:01:29;21.10;;;10.25;;
52124;SDS011;38119;52.710;6.398;2024-03-06T03:03:55;19.00;;;10.82;;
52124;SDS011;38119;52.710;6.398;2024-03-06T03:06:22;17.75;;;11.00;;
52124;SDS011;38119;52.710;6.398;2024-03-06T03:08:49;19.40;;;10.25;;
52124;SDS011;38119;52.710;6.398;2024-03-06T03:11:16;22.00;;;10.57;;
52124;SDS011;38119;52.710;6.398;2024-03-06T03:13:41;18.25;;;10.75;;
52124;SDS011;38119;52.710;6.398;2024-03-06T03:16:18;19.45;;;10.55;;
52124;SDS011;38119;52.710;6.398;2024-03-06T03:18:49;19.23;;;10.98;;
52124;SDS011;38119;52.710;6.398;2024-03-06T03:21:17;17.70;;;10.65;;
52124;SDS011;38119;52.710;6.398;2024-03-06T03:23:43;20.15;;;9.98;;
52124;SDS011;38119;52.710;6.398;2024-03-06T03:26:10;19.73;;;11.18;;
52124;SDS011;38119;52.710;6.398;2024-03-06T03:28:39;22.42;;;11.13;;
52124;SDS011;38119;52.710;6.398;2024-03-06T03:31:08;19.33;;;10.73;;
52124;SDS011;38119;52.710;6.398;2024-03-06T03:33:35;19.67;;;11.48;;
52124;SDS011;38119;52.710;6.398;2024-03-06T03:36:05;17.35;;;11.05;;
52124;SDS011;38119;52.710;6.398;2024-03-06T03:38:32;17.83;;;10.13;;
52124;SDS011;38119;52.710;6.398;2024-03-06T03:41:03;22.02;;;10.98;;
52124;SDS011;38119;52.710;6.398;2024-03-06T03:43:32;20.33;;;11.35;;
52124;SDS011;38119;52.710;6.398;2024-03-06T03:45:58;20.80;;;10.73;;
52124;SDS011;38119;52.710;6.398;2024-03-06T03:48:29;20.63;;;10.73;;
52124;SDS011;38119;52.710;6.398;2024-03-06T03:50:55;20.00;;;10.00;;
52124;SDS011;38119;52.710;6.398;2024-03-06T03:53:20;20.17;;;10.82;;
52124;SDS011;38119;52.710;6.398;2024-03-06T03:55:46;20.63;;;10.23;;
52124;SDS011;38119;52.710;6.398;2024-03-06T03:58:11;19.38;;;10.75;;
52124;SDS011;38119;52.710;6.398;2024-03-06T04:00:38;16.67;;;9.85;;
52124;SDS011;38119;52.710;6.398;2024-03-06T04:03:03;21.80;;;10.55;;
52124;SDS011;38119;52.710;6.398;2024-03-06T04:05:29;18.33;;;10.25;;
52124;SDS011;38119;52.710;6.398;2024-03-06T04:07:56;19.50;;;10.27;;
52124;SDS011;38119;52.710;6.398;2024-03-06T04:10:23;19.63;;;10.38;;
52124;SDS011;38119;52.710;6.398;2024-03-06T04:12:52;17.23;;;10.40;;
52124;SDS011;38119;52.710;6.398;2024-03-06T04:15:18;22.20;;;10.65;;
52124;SDS011;38119;52.710;6.398;2024-03-06T04:17:44;16.27;;;10.98;;
52124;SDS011;38119;52.710;6.398;2024-03-06T04:20:10;20.02;;;10.77;;
52124;SDS011;38119;52.710;6.398;2024-03-06T04:22:38;17.35;;;10.77;;
52124;SDS011;38119;52.710;6.398;2024-03-06T04:25:04;22.75;;;11.23;;
52124;SDS011;38119;52.710;6.398;2024-03-06T04:27:30;20.52;;;10.52;;
52124;SDS011;38119;52.710;6.398;2024-03-06T04:29:56;18.25;;;11.07;;
52124;SDS011;38119;52.710;6.398;2024-03-06T04:32:21;18.58;;;11.07;;
52124;SDS011;38119;52.710;6.398;2024-03-06T04:34:47;20.90;;;10.38;;
52124;SDS011;38119;52.710;6.398;2024-03-06T04:37:12;20.67;;;10.70;;
52124;SDS011;38119;52.710;6.398;2024-03-06T04:39:38;22.25;;;11.13;;
52124;SDS011;38119;52.710;6.398;2024-03-06T04:42:06;21.02;;;10.95;;
52124;SDS011;38119;52.710;6.398;2024-03-06T04:44:36;15.75;;;10.80;;
52124;SDS011;38119;52.710;6.398;2024-03-06T04:47:02;23.80;;;11.15;;
52124;SDS011;38119;52.710;6.398;2024-03-06T04:49:28;19.42;;;10.85;;
52124;SDS011;38119;52.710;6.398;2024-03-06T04:51:59;17.02;;;10.85;;
52124;SDS011;38119;52.710;6.398;2024-03-06T04:54:25;20.98;;;11.00;;
52124;SDS011;38119;52.710;6.398;2024-03-06T04:56:50;23.15;;;11.82;;
52124;SDS011;38119;52.710;6.398;2024-03-06T04:59:17;27.33;;;12.30;;
52124;SDS011;38119;52.710;6.398;2024-03-06T05:01:51;20.58;;;11.18;;
52124;SDS011;38119;52.710;6.398;2024-03-06T05:04:17;20.23;;;11.13;;
52124;SDS011;38119;52.710;6.398;2024-03-06T05:06:44;20.30;;;11.88;;
52124;SDS011;38119;52.710;6.398;2024-03-06T05:09:22;22.88;;;11.85;;
52124;SDS011;38119;52.710;6.398;2024-03-06T05:11:47;21.70;;;11.77;;
52124;SDS011;38119;52.710;6.398;2024-03-06T05:14:16;20.10;;;12.10;;
52124;SDS011;38119;52.710;6.398;2024-03-06T05:16:42;21.20;;;11.85;;
52124;SDS011;38119;52.710;6.398;2024-03-06T05:19:09;24.42;;;12.05;;
52124;SDS011;38119;52.710;6.398;2024-03-06T05:21:36;23.10;;;11.85;;
52124;SDS011;38119;52.710;6.398;2024-03-06T05:24:02;19.15;;;11.90;;
52124;SDS011;38119;52.710;6.398;2024-03-06T05:26:28;19.38;;;11.15;;
52124;SDS011;38119;52.710;6.398;2024-03-06T05:28:57;23.67;;;12.85;;
52124;SDS011;38119;52.710;6.398;2024-03-06T05:31:34;23.13;;;12.70;;
52124;SDS011;38119;52.710;6.398;2024-03-06T05:34:00;22.17;;;12.45;;
52124;SDS011;38119;52.710;6.398;2024-03-06T05:36:26;20.63;;;12.45;;
52124;SDS011;38119;52.710;6.398;2024-03-06T05:38:51;21.13;;;12.02;;
52124;SDS011;38119;52.710;6.398;2024-03-06T05:41:17;21.05;;;12.70;;
52124;SDS011;38119;52.710;6.398;2024-03-06T05:43:44;25.95;;;12.60;;
52124;SDS011;38119;52.710;6.398;2024-03-06T05:46:09;26.48;;;12.35;;
52124;SDS011;38119;52.710;6.398;2024-03-06T05:48:35;23.20;;;13.23;;
52124;SDS011;38119;52.710;6.398;2024-03-06T05:51:01;20.42;;;13.02;;
52124;SDS011;38119;52.710;6.398;2024-03-06T05:53:35;21.98;;;13.13;;
52124;SDS011;38119;52.710;6.398;2024-03-06T05:56:22;20.75;;;13.35;;
52124;SDS011;38119;52.710;6.398;2024-03-06T05:58:53;24.15;;;14.35;;
52124;SDS011;38119;52.710;6.398;2024-03-06T06:01:19;21.80;;;13.55;;
52124;SDS011;38119;52.710;6.398;2024-03-06T06:03:48;26.08;;;13.88;;
52124;SDS011;38119;52.710;6.398;2024-03-06T06:06:15;22.73;;;13.55;;
52124;SDS011;38119;52.710;6.398;2024-03-06T06:08:41;24.48;;;14.07;;
52124;SDS011;38119;52.710;6.398;2024-03-06T06:11:09;23.88;;;13.90;;
52124;SDS011;38119;52.710;6.398;2024-03-06T06:13:35;28.55;;;14.95;;
52124;SDS011;38119;52.710;6.398;2024-03-06T06:16:16;26.15;;;14.88;;
52124;SDS011;38119;52.710;6.398;2024-03-06T06:18:42;30.15;;;15.02;;
52124;SDS011;38119;52.710;6.398;2024-03-06T06:21:08;26.00;;;14.57;;
52124;SDS011;38119;52.710;6.398;2024-03-06T06:23:34;28.98;;;14.93;;
52124;SDS011;38119;52.710;6.398;2024-03-06T06:26:00;26.65;;;15.35;;
52124;SDS011;38119;52.710;6.398;2024-03-06T06:28:48;27.50;;;14.65;;
52124;SDS011;38119;52.710;6.398;2024-03-06T06:31:17;28.85;;;15.70;;
52124;SDS011;38119;52.710;6.398;2024-03-06T06:33:43;27.23;;;15.30;;
52124;SDS011;38119;52.710;6.398;2024-03-06T06:36:17;29.83;;;15.50;;
52124;SDS011;38119;52.710;6.398;2024-03-06T06:38:49;29.88;;;15.88;;
52124;SDS011;38119;52.710;6.398;2024-03-06T06:41:15;30.98;;;15.50;;
52124;SDS011;38119;52.710;6.398;2024-03-06T06:43:42;30.83;;;15.50;;
52124;SDS011;38119;52.710;6.398;2024-03-06T06:46:08;30.08;;;16.50;;
52124;SDS011;38119;52.710;6.398;2024-03-06T06:48:33;27.40;;;15.77;;
52124;SDS011;38119;52.710;6.398;2024-03-06T06:50:59;33.30;;;16.25;;
52124;SDS011;38119;52.710;6.398;2024-03-06T06:53:29;34.15;;;16.48;;
52124;SDS011;38119;52.710;6.398;2024-03-06T06:55:55;31.27;;;16.52;;
52124;SDS011;38119;52.710;6.398;2024-03-06T06:58:22;33.65;;;16.75;;
52124;SDS011;38119;52.710;6.398;2024-03-06T07:00:52;38.20;;;16.40;;
52124;SDS011;38119;52.710;6.398;2024-03-06T07:03:18;31.60;;;16.83;;
52124;SDS011;38119;52.710;6.398;2024-03-06T07:05:43;38.83;;;17.58;;
52124;SDS011;38119;52.710;6.398;2024-03-06T07:08:09;31.30;;;16.65;;
52124;SDS011;38119;52.710;6.398;2024-03-06T07:10:35;33.38;;;17.02;;
52124;SDS011;38119;52.710;6.398;2024-03-06T07:13:01;31.85;;;17.02;;
52124;SDS011;38119;52.710;6.398;2024-03-06T07:15:34;35.80;;;18.42;;
52124;SDS011;38119;52.710;6.398;2024-03-06T07:18:00;30.02;;;16.27;;
52124;SDS011;38119;52.710;6.398;2024-03-06T07:20:25;34.28;;;17.42;;
52124;SDS011;38119;52.710;6.398;2024-03-06T07:22:52;37.40;;;17.15;;
52124;SDS011;38119;52.710;6.398;2024-03-06T07:25:17;33.13;;;17.38;;
52124;SDS011;38119;52.710;6.398;2024-03-06T07:27:43;34.67;;;17.25;;
52124;SDS011;38119;52.710;6.398;2024-03-06T07:30:08;33.90;;;18.33;;
52124;SDS011;38119;52.710;6.398;2024-03-06T07:32:35;33.20;;;18.48;;
52124;SDS011;38119;52.710;6.398;2024-03-06T07:35:01;33.17;;;17.13;;
52124;SDS011;38119;52.710;6.398;2024-03-06T07:37:27;33.90;;;18.48;;
52124;SDS011;38119;52.710;6.398;2024-03-06T07:39:52;34.05;;;18.75;;
52124;SDS011;38119;52.710;6.398;2024-03-06T07:42:21;32.92;;;17.60;;
52124;SDS011;38119;52.710;6.398;2024-03-06T07:44:47;32.97;;;17.40;;
52124;SDS011;38119;52.710;6.398;2024-03-06T07:47:12;35.92;;;17.98;;
52124;SDS011;38119;52.710;6.398;2024-03-06T07:49:39;34.47;;;17.45;;
52124;SDS011;38119;52.710;6.398;2024-03-06T07:52:05;35.40;;;17.85;;
52124;SDS011;38119;52.710;6.398;2024-03-06T07:54:33;33.33;;;18.15;;
52124;SDS011;38119;52.710;6.398;2024-03-06T07:56:59;32.95;;;17.63;;
52124;SDS011;38119;52.710;6.398;2024-03-06T07:59:25;35.38;;;18.42;;
52124;SDS011;38119;52.710;6.398;2024-03-06T08:01:54;32.97;;;18.00;;
52124;SDS011;38119;52.710;6.398;2024-03-06T08:04:20;37.10;;;18.73;;
52124;SDS011;38119;52.710;6.398;2024-03-06T08:06:50;33.83;;;18.60;;
52124;SDS011;38119;52.710;6.398;2024-03-06T08:09:16;36.55;;;19.13;;
52124;SDS011;38119;52.710;6.398;2024-03-06T08:11:49;35.17;;;19.27;;
52124;SDS011;38119;52.710;6.398;2024-03-06T08:14:14;39.53;;;19.13;;
52124;SDS011;38119;52.710;6.398;2024-03-06T08:16:42;34.55;;;18.30;;
52124;SDS011;38119;52.710;6.398;2024-03-06T08:19:12;37.58;;;19.08;;
52124;SDS011;38119;52.710;6.398;2024-03-06T08:21:38;39.00;;;20.17;;
52124;SDS011;38119;52.710;6.398;2024-03-06T08:24:08;37.42;;;19.15;;
52124;SDS011;38119;52.710;6.398;2024-03-06T08:26:37;39.28;;;19.50;;
52124;SDS011;38119;52.710;6.398;2024-03-06T08:29:03;42.30;;;19.30;;
52124;SDS011;38119;52.710;6.398;2024-03-06T08:31:31;34.10;;;18.77;;
52124;SDS011;38119;52.710;6.398;2024-03-06T08:33:57;39.25;;;19.42;;
52124;SDS011;38119;52.710;6.398;2024-03-06T08:36:26;33.88;;;18.90;;
52124;SDS011;38119;52.710;6.398;2024-03-06T08:38:52;35.90;;;19.00;;
52124;SDS011;38119;52.710;6.398;2024-03-06T08:41:17;39.08;;;20.05;;
52124;SDS011;38119;52.710;6.398;2024-03-06T08:43:43;34.80;;;19.58;;
52124;SDS011;38119;52.710;6.398;2024-03-06T08:46:11;37.53;;;20.35;;
52124;SDS011;38119;52.710;6.398;2024-03-06T08:48:39;39.53;;;18.60;;
52124;SDS011;38119;52.710;6.398;2024-03-06T08:51:08;36.28;;;19.45;;
52124;SDS011;38119;52.710;6.398;2024-03-06T08:53:36;43.13;;;21.48;;
52124;SDS011;38119;52.710;6.398;2024-03-06T08:56:02;40.80;;;19.73;;
52124;SDS011;38119;52.710;6.398;2024-03-06T08:58:31;37.58;;;19.90;;
52124;SDS011;38119;52.710;6.398;2024-03-06T09:00:57;34.58;;;20.35;;
52124;SDS011;38119;52.710;6.398;2024-03-06T09:03:26;35.30;;;18.98;;
52124;SDS011;38119;52.710;6.398;2024-03-06T09:05:52;33.72;;;19.73;;
52124;SDS011;38119;52.710;6.398;2024-03-06T09:08:17;35.70;;;19.75;;
52124;SDS011;38119;52.710;6.398;2024-03-06T09:10:46;34.47;;;19.98;;
52124;SDS011;38119;52.710;6.398;2024-03-06T09:13:13;32.80;;;19.05;;
52124;SDS011;38119;52.710;6.398;2024-03-06T09:15:45;35.00;;;19.60;;
52124;SDS011;38119;52.710;6.398;2024-03-06T09:18:11;36.50;;;20.15;;
52124;SDS011;38119;52.710;6.398;2024-03-06T09:20:37;40.67;;;19.00;;
52124;SDS011;38119;52.710;6.398;2024-03-06T09:23:03;39.45;;;20.83;;
52124;SDS011;38119;52.710;6.398;2024-03-06T09:25:29;40.25;;;20.08;;
52124;SDS011;38119;52.710;6.398;2024-03-06T09:27:54;37.33;;;20.20;;
52124;SDS011;38119;52.710;6.398;2024-03-06T09:30:20;35.28;;;20.25;;
52124;SDS011;38119;52.710;6.398;2024-03-06T09:32:46;37.75;;;19.75;;
52124;SDS011;38119;52.710;6.398;2024-03-06T09:35:12;37.35;;;19.85;;
52124;SDS011;38119;52.710;6.398;2024-03-06T09:37:39;36.40;;;21.10;;
52124;SDS011;38119;52.710;6.398;2024-03-06T09:40:05;32.03;;;20.08;;
52124;SDS011;38119;52.710;6.398;2024-03-06T09:42:32;39.72;;;20.95;;
52124;SDS011;38119;52.710;6.398;2024-03-06T09:44:59;32.15;;;19.92;;
52124;SDS011;38119;52.710;6.398;2024-03-06T09:47:27;31.75;;;19.55;;
52124;SDS011;38119;52.710;6.398;2024-03-06T09:49:57;34.33;;;19.40;;
52124;SDS011;38119;52.710;6.398;2024-03-06T09:52:23;33.33;;;19.88;;
52124;SDS011;38119;52.710;6.398;2024-03-06T09:54:55;39.83;;;20.40;;
52124;SDS011;38119;52.710;6.398;2024-03-06T09:57:22;37.15;;;20.38;;
52124;SDS011;38119;52.710;6.398;2024-03-06T09:59:52;32.28;;;19.75;;
52124;SDS011;38119;52.710;6.398;2024-03-06T10:02:41;33.53;;;20.00;;
52124;SDS011;38119;52.710;6.398;2024-03-06T10:05:22;33.88;;;19.48;;
52124;SDS011;38119;52.710;6.398;2024-03-06T10:07:53;31.30;;;19.42;;
52124;SDS011;38119;52.710;6.398;2024-03-06T10:10:32;32.55;;;20.05;;
52124;SDS011;38119;52.710;6.398;2024-03-06T10:12:59;41.00;;;21.35;;
52124;SDS011;38119;52.710;6.398;2024-03-06T10:15:32;35.20;;;19.73;;
52124;SDS011;38119;52.710;6.398;2024-03-06T10:18:14;39.63;;;21.48;;
52124;SDS011;38119;52.710;6.398;2024-03-06T10:20:40;36.85;;;21.02;;
52124;SDS011;38119;52.710;6.398;2024-03-06T10:23:30;37.42;;;21.45;;
52124;SDS011;38119;52.710;6.398;2024-03-06T10:25:56;37.28;;;22.42;;
52124;SDS011;38119;52.710;6.398;2024-03-06T10:28:22;37.33;;;21.17;;
52124;SDS011;38119;52.710;6.398;2024-03-06T10:30:49;34.05;;;20.45;;
52124;SDS011;38119;52.710;6.398;2024-03-06T10:33:16;37.42;;;21.67;;
52124;SDS011;38119;52.710;6.398;2024-03-06T10:35:46;36.15;;;21.88;;
52124;SDS011;38119;52.710;6.398;2024-03-06T10:38:18;40.30;;;21.75;;
52124;SDS011;38119;52.710;6.398;2024-03-06T10:40:46;37.58;;;21.95;;
52124;SDS011;38119;52.710;6.398;2024-03-06T10:43:15;37.75;;;21.83;;
52124;SDS011;38119;52.710;6.398;2024-03-06T10:45:49;35.63;;;21.75;;
52124;SDS011;38119;52.710;6.398;2024-03-06T10:48:19;39.17;;;22.08;;
52124;SDS011;38119;52.710;6.398;2024-03-06T10:50:45;36.47;;;22.23;;
52124;SDS011;38119;52.710;6.398;2024-03-06T10:53:13;37.22;;;22.33;;
52124;SDS011;38119;52.710;6.398;2024-03-06T10:55:40;40.30;;;22.20;;
52124;SDS011;38119;52.710;6.398;2024-03-06T10:58:11;36.27;;;21.30;;
52124;SDS011;38119;52.710;6.398;2024-03-06T11:00:40;46.03;;;23.65;;
52124;SDS011;38119;52.710;6.398;2024-03-06T11:03:09;37.75;;;22.77;;
52124;SDS011;38119;52.710;6.398;2024-03-06T11:05:37;37.05;;;21.88;;
52124;SDS011;38119;52.710;6.398;2024-03-06T11:08:06;38.67;;;22.90;;
52124;SDS011;38119;52.710;6.398;2024-03-06T11:10:39;39.53;;;23.13;;
52124;SDS011;38119;52.710;6.398;2024-03-06T11:13:09;39.53;;;23.20;;
52124;SDS011;38119;52.710;6.398;2024-03-06T11:15:51;37.50;;;23.23;;
52124;SDS011;38119;52.710;6.398;2024-03-06T11:20:59;40.47;;;23.73;;
52124;SDS011;38119;52.710;6.398;2024-03-06T11:23:27;35.33;;;22.90;;
52124;SDS011;38119;52.710;6.398;2024-03-06T11:28:22;36.28;;;23.48;;
52124;SDS011;38119;52.710;6.398;2024-03-06T11:30:58;36.53;;;23.65;;
52124;SDS011;38119;52.710;6.398;2024-03-06T11:39:02;39.38;;;23.73;;
52124;SDS011;38119;52.710;6.398;2024-03-06T11:41:33;41.53;;;24.35;;
52124;SDS011;38119;52.710;6.398;2024-03-06T11:44:15;38.97;;;22.70;;
52124;SDS011;38119;52.710;6.398;2024-03-06T11:46:47;36.17;;;23.92;;
52124;SDS011;38119;52.710;6.398;2024-03-06T11:49:23;37.70;;;23.58;;
52124;SDS011;38119;52.710;6.398;2024-03-06T11:51:50;47.22;;;24.83;;
52124;SDS011;38119;52.710;6.398;2024-03-06T11:54:25;34.25;;;23.27;;
52124;SDS011;38119;52.710;6.398;2024-03-06T11:56:55;37.95;;;23.75;;
52124;SDS011;38119;52.710;6.398;2024-03-06T11:59:23;37.70;;;24.45;;
52124;SDS011;38119;52.710;6.398;2024-03-06T12:01:50;39.45;;;23.45;;
52124;SDS011;38119;52.710;6.398;2024-03-06T12:04:18;35.00;;;23.15;;
52124;SDS011;38119;52.710;6.398;2024-03-06T12:06:46;35.80;;;23.65;;
52124;SDS011;38119;52.710;6.398;2024-03-06T12:09:12;36.08;;;23.63;;
52124;SDS011;38119;52.710;6.398;2024-03-06T12:11:37;35.70;;;24.00;;
52124;SDS011;38119;52.710;6.398;2024-03-06T12:14:04;35.65;;;23.75;;
52124;SDS011;38119;52.710;6.398;2024-03-06T12:16:30;33.75;;;22.88;;
52124;SDS011;38119;52.710;6.398;2024-03-06T12:19:03;37.58;;;24.33;;
52124;SDS011;38119;52.710;6.398;2024-03-06T12:22:17;39.50;;;23.45;;
52124;SDS011;38119;52.710;6.398;2024-03-06T12:24:46;38.40;;;24.83;;
52124;SDS011;38119;52.710;6.398;2024-03-06T12:27:11;34.70;;;24.15;;
52124;SDS011;38119;52.710;6.398;2024-03-06T12:29:40;36.92;;;22.58;;
52124;SDS011;38119;52.710;6.398;2024-03-06T12:32:15;33.90;;;22.90;;
52124;SDS011;38119;52.710;6.398;2024-03-06T12:34:59;37.17;;;23.90;;
52124;SDS011;38119;52.710;6.398;2024-03-06T12:37:34;37.17;;;25.15;;
52124;SDS011;38119;52.710;6.398;2024-03-06T12:40:49;34.53;;;23.67;;
52124;SDS011;38119;52.710;6.398;2024-03-06T12:44:40;36.08;;;23.73;;
52124;SDS011;38119;52.710;6.398;2024-03-06T12:47:06;41.00;;;24.95;;
52124;SDS011;38119;52.710;6.398;2024-03-06T12:49:39;33.80;;;23.52;;
52124;SDS011;38119;52.710;6.398;2024-03-06T12:52:17;37.15;;;23.13;;
52124;SDS011;38119;52.710;6.398;2024-03-06T12:54:43;36.42;;;23.90;;
52124;SDS011;38119;52.710;6.398;2024-03-06T12:57:08;32.67;;;22.88;;
52124;SDS011;38119;52.710;6.398;2024-03-06T12:59:34;34.60;;;23.65;;
52124;SDS011;38119;52.710;6.398;2024-03-06T13:01:59;37.28;;;23.38;;
52124;SDS011;38119;52.710;6.398;2024-03-06T13:04:25;34.88;;;23.30;;
52124;SDS011;38119;52.710;6.398;2024-03-06T13:06:51;35.75;;;23.60;;
52124;SDS011;38119;52.710;6.398;2024-03-06T13:09:16;33.03;;;23.75;;
52124;SDS011;38119;52.710;6.398;2024-03-06T13:11:42;33.75;;;23.67;;
52124;SDS011;38119;52.710;6.398;2024-03-06T13:14:08;37.25;;;24.50;;
52124;SDS011;38119;52.710;6.398;2024-03-06T13:16:36;34.63;;;22.92;;
52124;SDS011;38119;52.710;6.398;2024-03-06T13:19:02;31.85;;;22.42;;
52124;SDS011;38119;52.710;6.398;2024-03-06T13:21:28;36.65;;;22.92;;
52124;SDS011;38119;52.710;6.398;2024-03-06T13:23:54;31.40;;;22.05;;
52124;SDS011;38119;52.710;6.398;2024-03-06T13:26:20;35.10;;;22.33;;
52124;SDS011;38119;52.710;6.398;2024-03-06T13:28:45;35.97;;;22.92;;
52124;SDS011;38119;52.710;6.398;2024-03-06T13:31:11;34.30;;;23.15;;
52124;SDS011;38119;52.710;6.398;2024-03-06T13:33:38;32.95;;;21.98;;
52124;SDS011;38119;52.710;6.398;2024-03-06T13:36:03;34.65;;;23.08;;
52124;SDS011;38119;52.710;6.398;2024-03-06T13:38:29;29.00;;;21.17;;
52124;SDS011;38119;52.710;6.398;2024-03-06T13:40:55;29.70;;;21.42;;
52124;SDS011;38119;52.710;6.398;2024-03-06T13:43:20;32.83;;;22.67;;
52124;SDS011;38119;52.710;6.398;2024-03-06T13:45:51;32.67;;;22.52;;
52124;SDS011;38119;52.710;6.398;2024-03-06T13:48:17;35.17;;;22.40;;
52124;SDS011;38119;52.710;6.398;2024-03-06T13:50:44;35.20;;;23.10;;
52124;SDS011;38119;52.710;6.398;2024-03-06T13:53:10;33.08;;;22.77;;
52124;SDS011;38119;52.710;6.398;2024-03-06T13:55:36;36.55;;;22.50;;
52124;SDS011;38119;52.710;6.398;2024-03-06T13:58:02;33.50;;;22.70;;
52124;SDS011;38119;52.710;6.398;2024-03-06T14:00:29;32.90;;;22.05;;
52124;SDS011;38119;52.710;6.398;2024-03-06T14:02:55;34.20;;;23.30;;
52124;SDS011;38119;52.710;6.398;2024-03-06T14:05:20;33.17;;;22.63;;
52124;SDS011;38119;52.710;6.398;2024-03-06T14:07:53;37.30;;;22.60;;
52124;SDS011;38119;52.710;6.398;2024-03-06T14:10:20;33.28;;;22.13;;
52124;SDS011;38119;52.710;6.398;2024-03-06T14:12:48;30.60;;;22.02;;
52124;SDS011;38119;52.710;6.398;2024-03-06T14:15:17;32.30;;;22.95;;
52124;SDS011;38119;52.710;6.398;2024-03-06T14:17:44;34.70;;;23.05;;
52124;SDS011;38119;52.710;6.398;2024-03-06T14:20:10;32.88;;;22.50;;
52124;SDS011;38119;52.710;6.398;2024-03-06T14:22:40;34.92;;;22.58;;
52124;SDS011;38119;52.710;6.398;2024-03-06T14:25:07;36.00;;;22.75;;
52124;SDS011;38119;52.710;6.398;2024-03-06T14:27:33;31.35;;;22.45;;
52124;SDS011;38119;52.710;6.398;2024-03-06T14:30:00;32.53;;;22.55;;
52124;SDS011;38119;52.710;6.398;2024-03-06T14:32:27;31.10;;;21.25;;
52124;SDS011;38119;52.710;6.398;2024-03-06T14:34:53;36.92;;;22.50;;
52124;SDS011;38119;52.710;6.398;2024-03-06T14:37:18;36.83;;;22.15;;
52124;SDS011;38119;52.710;6.398;2024-03-06T14:39:44;31.73;;;21.73;;